Time;durP1;ratioP1;P1;durP2;ratioP2;P2;SDS_P1;SDS_P2;PMS_P1;PMS_P2;Temp;Humidity;BMP_temperature;BMP_pressure;BME280_temperature;BME280_humidity;BME280_pressure;Samples;Min_cycle;Max_cycle;Signal;HPM_P1;HPM_P2
2023/03/27 00:02:36;;;;;;;3.93;1.17;;;;;;;;;;6251077;23;20171;-92
2023/03/27 00:05:44;;;;;;;2.27;1.13;;;;;;;;;;6252784;23;20194;-90
2023/03/27 00:08:50;;;;;;;1.63;1.10;;;;;;;;;;6234903;23;20175;-90
2023/03/27 00:11:55;;;;;;;3.73;1.17;;;;;;;;;;6233668;23;20170;-89
2023/03/27 00:15:01;;;;;;;7.10;1.37;;;;;;;;;;6252603;23;20170;-91
2023/03/27 00:18:06;;;;;;;2.90;1.23;;;;;;;;;;6251728;23;20170;-90
2023/03/27 00:21:12;;;;;;;4.50;1.17;;;;;;;;;;6251546;23;20285;-91
2023/03/27 00:24:18;;;;;;;2.17;1.27;;;;;;;;;;6255357;22;20622;-90
2023/03/27 00:27:23;;;;;;;2.70;1.00;;;;;;;;;;6250592;23;20186;-90
2023/03/27 00:30:29;;;;;;;4.80;1.20;;;;;;;;;;6236051;23;20237;-89
2023/03/27 00:33:34;;;;;;;3.90;1.17;;;;;;;;;;6253243;23;20209;-89
2023/03/27 00:36:42;;;;;;;4.10;1.00;;;;;;;;;;6256012;23;20269;-91
2023/03/27 00:39:49;;;;;;;2.13;1.00;;;;;;;;;;6237856;23;20171;-88
2023/03/27 00:42:56;;;;;;;6.07;1.00;;;;;;;;;;6253936;23;20230;-88
2023/03/27 00:46:03;;;;;;;1.30;1.07;;;;;;;;;;6254963;23;20170;-90
2023/03/27 00:49:10;;;;;;;1.33;1.10;;;;;;;;;;6237242;23;20696;-89
2023/03/27 00:52:18;;;;;;;4.90;1.27;;;;;;;;;;6255640;23;20165;-90
2023/03/27 00:55:23;;;;;;;1.93;1.13;;;;;;;;;;6235652;23;20167;-90
2023/03/27 00:58:29;;;;;;;1.20;0.90;;;;;;;;;;6252745;23;20516;-90
2023/03/27 01:01:34;;;;;;;3.00;1.10;;;;;;;;;;6254211;23;20186;-91
2023/03/27 01:04:40;;;;;;;3.63;1.17;;;;;;;;;;6254416;23;20175;-90
2023/03/27 01:07:48;;;;;;;3.03;1.00;;;;;;;;;;6254755;23;20551;-90
2023/03/27 01:11:00;;;;;;;1.30;0.80;;;;;;;;;;6253891;22;20644;-91
2023/03/27 01:14:16;;;;;;;3.70;1.40;;;;;;;;;;6254030;23;20185;-90
2023/03/27 01:17:29;;;;;;;1.60;1.07;;;;;;;;;;6253478;23;20206;-92
2023/03/27 01:20:53;;;;;;;2.03;1.00;;;;;;;;;;6253157;23;20213;-90
2023/03/27 01:24:22;;;;;;;2.07;1.00;;;;;;;;;;6253747;23;20166;-88
2023/03/27 01:27:38;;;;;;;1.40;0.97;;;;;;;;;;6253487;23;20166;-88
2023/03/27 01:30:48;;;;;;;4.47;1.10;;;;;;;;;;6255316;23;20194;-90
2023/03/27 01:34:11;;;;;;;4.57;1.20;;;;;;;;;;6237867;23;20546;-91
2023/03/27 01:37:24;;;;;;;1.53;1.03;;;;;;;;;;6236849;23;20226;-89
2023/03/27 01:40:33;;;;;;;1.33;1.00;;;;;;;;;;6256016;23;20163;-89
2023/03/27 01:43:41;;;;;;;2.00;1.00;;;;;;;;;;6254812;23;20166;-90
2023/03/27 01:46:49;;;;;;;1.17;1.00;;;;;;;;;;6254911;23;20189;-89
2023/03/27 01:49:56;;;;;;;1.83;1.10;;;;;;;;;;6237505;23;20246;-90
2023/03/27 01:53:03;;;;;;;1.50;1.20;;;;;;;;;;6236946;22;20182;-90
2023/03/27 01:56:17;;;;;;;2.97;1.20;;;;;;;;;;6254171;23;20213;-90
2023/03/27 01:59:26;;;;;;;2.27;1.07;;;;;;;;;;6254558;22;20230;-90
2023/03/27 02:02:32;;;;;;;2.47;1.10;;;;;;;;;;6254796;22;20162;-89
2023/03/27 02:05:41;;;;;;;3.27;1.47;;;;;;;;;;6254560;22;20313;-89
2023/03/27 02:08:49;;;;;;;2.53;1.40;;;;;;;;;;6235347;23;20170;-90
2023/03/27 02:12:00;;;;;;;3.60;1.53;;;;;;;;;;6255447;22;20162;-90
2023/03/27 02:15:13;;;;;;;3.90;1.63;;;;;;;;;;6253748;23;20171;-88
2023/03/27 02:18:21;;;;;;;3.20;1.43;;;;;;;;;;6254442;22;20286;-89
2023/03/27 02:21:30;;;;;;;5.60;2.40;;;;;;;;;;6253737;23;20154;-91
2023/03/27 02:24:37;;;;;;;5.73;2.20;;;;;;;;;;6253745;22;20471;-88
2023/03/27 02:27:47;;;;;;;3.10;1.60;;;;;;;;;;6236909;22;20167;-90
2023/03/27 02:30:59;;;;;;;3.40;1.57;;;;;;;;;;6255551;22;20197;-89
2023/03/27 02:34:18;;;;;;;6.33;1.43;;;;;;;;;;6254464;22;20170;-91
2023/03/27 02:37:27;;;;;;;3.90;1.43;;;;;;;;;;6253404;22;20162;-90
2023/03/27 02:40:56;;;;;;;4.63;2.07;;;;;;;;;;6255386;22;20211;-88
2023/03/27 02:44:25;;;;;;;3.73;1.70;;;;;;;;;;6254427;23;20556;-89
2023/03/27 02:47:38;;;;;;;4.03;2.20;;;;;;;;;;6236269;23;20246;-91
2023/03/27 02:50:46;;;;;;;4.77;2.47;;;;;;;;;;6254142;23;20847;-88
2023/03/27 02:53:54;;;;;;;5.00;2.50;;;;;;;;;;6237327;22;20209;-90
2023/03/27 02:57:02;;;;;;;3.80;2.50;;;;;;;;;;6254352;22;20281;-89
2023/03/27 03:00:24;;;;;;;5.50;2.67;;;;;;;;;;6255349;23;20155;-90
2023/03/27 03:03:52;;;;;;;3.90;2.30;;;;;;;;;;6255596;22;20170;-89
2023/03/27 03:07:21;;;;;;;4.70;2.53;;;;;;;;;;6255668;23;20220;-91
2023/03/27 03:10:27;;;;;;;5.00;2.50;;;;;;;;;;6254400;23;20190;-90
2023/03/27 03:14:07;;;;;;;5.03;2.10;;;;;;;;;;6255909;23;20167;-90
2023/03/27 03:17:14;;;;;;;3.70;2.00;;;;;;;;;;6237704;23;20218;-90
2023/03/27 03:20:20;;;;;;;4.90;2.20;;;;;;;;;;6255757;22;20162;-90
2023/03/27 03:23:26;;;;;;;5.47;2.00;;;;;;;;;;6238148;23;20162;-89
2023/03/27 03:26:31;;;;;;;2.90;1.90;;;;;;;;;;6257562;23;20258;-90
2023/03/27 03:29:37;;;;;;;2.90;1.90;;;;;;;;;;6256633;23;20166;-91
2023/03/27 03:32:53;;;;;;;3.80;2.20;;;;;;;;;;6257048;23;20222;-92
2023/03/27 03:35:59;;;;;;;4.83;2.23;;;;;;;;;;6256043;23;20177;-90
2023/03/27 03:39:11;;;;;;;4.43;2.00;;;;;;;;;;6256442;23;20166;-89
2023/03/27 03:42:15;;;;;;;5.40;2.20;;;;;;;;;;6238184;23;20174;-90
2023/03/27 03:45:21;;;;;;;4.30;1.90;;;;;;;;;;6255781;22;20163;-90
2023/03/27 03:48:28;;;;;;;2.30;1.80;;;;;;;;;;6255958;22;20162;-89
2023/03/27 03:51:33;;;;;;;3.40;1.83;;;;;;;;;;6254772;22;20260;-89
2023/03/27 03:54:39;;;;;;;6.97;2.40;;;;;;;;;;6255820;23;20159;-87
2023/03/27 03:57:47;;;;;;;4.77;1.93;;;;;;;;;;6253426;22;20171;-89
2023/03/27 04:01:34;;;;;;;5.07;2.30;;;;;;;;;;6253622;22;20174;-87
2023/03/27 04:04:43;;;;;;;3.43;1.93;;;;;;;;;;6235682;23;20166;-90
2023/03/27 04:07:51;;;;;;;4.97;2.13;;;;;;;;;;6255883;22;20162;-90
2023/03/27 04:11:15;;;;;;;4.57;2.00;;;;;;;;;;6254677;22;20229;-89
2023/03/27 04:14:46;;;;;;;4.10;1.90;;;;;;;;;;6241949;22;20236;-90
2023/03/27 04:18:31;;;;;;;2.80;1.60;;;;;;;;;;6191676;23;20188;-89
2023/03/27 04:22:04;;;;;;;7.33;2.00;;;;;;;;;;6174343;23;20220;-90
2023/03/27 04:25:16;;;;;;;5.77;2.10;;;;;;;;;;6187425;23;20186;-89
2023/03/27 04:28:23;;;;;;;2.87;1.83;;;;;;;;;;6236750;22;20166;-88
2023/03/27 04:31:45;;;;;;;6.73;2.13;;;;;;;;;;6254880;22;20572;-87
2023/03/27 04:35:12;;;;;;;5.17;2.00;;;;;;;;;;6255473;22;20248;-89
2023/03/27 04:38:38;;;;;;;8.67;2.73;;;;;;;;;;6254721;22;20166;-88
2023/03/27 04:41:48;;;;;;;5.00;1.83;;;;;;;;;;6252619;23;20189;-89
2023/03/27 04:44:54;;;;;;;5.23;2.50;;;;;;;;;;6234366;22;20167;-90
2023/03/27 04:48:02;;;;;;;5.63;2.40;;;;;;;;;;6253810;22;20150;-88
2023/03/27 04:51:10;;;;;;;3.10;2.00;;;;;;;;;;6255749;22;20341;-89
2023/03/27 04:54:21;;;;;;;4.93;1.87;;;;;;;;;;6254797;22;20193;-90
2023/03/27 04:57:29;;;;;;;3.70;1.90;;;;;;;;;;6258192;22;20186;-91
2023/03/27 05:00:38;;;;;;;2.57;1.63;;;;;;;;;;6259145;23;20243;-89
2023/03/27 05:04:06;;;;;;;3.33;1.70;;;;;;;;;;6108955;23;20226;-90
2023/03/27 05:07:33;;;;;;;4.47;1.90;;;;;;;;;;6123658;23;20199;-91
2023/03/27 05:10:44;;;;;;;2.87;2.23;;;;;;;;;;6240471;23;20182;-89
2023/03/27 05:13:53;;;;;;;3.57;2.20;;;;;;;;;;6259376;22;20243;-89
2023/03/27 05:17:05;;;;;;;5.47;2.37;;;;;;;;;;6257582;23;20257;-90
2023/03/27 05:20:15;;;;;;;2.67;2.30;;;;;;;;;;6238504;23;20174;-92
2023/03/27 05:23:22;;;;;;;5.20;2.30;;;;;;;;;;6258204;23;20190;-91
2023/03/27 05:26:27;;;;;;;4.00;2.20;;;;;;;;;;6258635;23;20170;-89
2023/03/27 05:29:37;;;;;;;4.37;2.00;;;;;;;;;;6244110;23;20167;-89
2023/03/27 05:32:47;;;;;;;6.40;2.27;;;;;;;;;;6238701;23;20487;-91
2023/03/27 05:36:04;;;;;;;4.13;2.50;;;;;;;;;;6241714;23;20182;-88
2023/03/27 05:39:10;;;;;;;2.87;2.10;;;;;;;;;;6245122;22;20154;-88
2023/03/27 05:42:18;;;;;;;3.40;2.17;;;;;;;;;;6258901;23;20170;-89
2023/03/27 05:45:42;;;;;;;3.63;2.07;;;;;;;;;;6272392;22;20150;-87
2023/03/27 05:48:57;;;;;;;4.20;2.83;;;;;;;;;;6243795;23;20218;-88
2023/03/27 05:52:03;;;;;;;5.87;3.17;;;;;;;;;;6259734;23;20197;-88
2023/03/27 05:55:10;;;;;;;8.30;2.10;;;;;;;;;;6257349;23;20171;-88
2023/03/27 05:58:17;;;;;;;2.90;2.10;;;;;;;;;;6259105;22;20154;-91
2023/03/27 06:01:23;;;;;;;4.27;2.20;;;;;;;;;;6258683;23;20162;-91
2023/03/27 06:04:34;;;;;;;4.30;2.20;;;;;;;;;;6259471;22;20205;-88
2023/03/27 06:07:49;;;;;;;3.70;2.50;;;;;;;;;;6259273;22;20201;-88
2023/03/27 06:10:56;;;;;;;7.93;2.40;;;;;;;;;;6258426;23;20190;-87
2023/03/27 06:14:04;;;;;;;4.63;2.50;;;;;;;;;;6239880;23;20170;-90
2023/03/27 06:17:26;;;;;;;3.47;2.30;;;;;;;;;;6256842;22;20648;-89
2023/03/27 06:20:41;;;;;;;5.67;2.90;;;;;;;;;;6255854;23;20158;-89
2023/03/27 06:23:46;;;;;;;8.17;2.80;;;;;;;;;;6254524;23;20170;-87
2023/03/27 06:26:57;;;;;;;3.50;2.10;;;;;;;;;;6255901;22;20225;-88
2023/03/27 06:30:07;;;;;;;8.93;2.30;;;;;;;;;;6256122;23;20315;-88
2023/03/27 06:33:15;;;;;;;3.57;2.10;;;;;;;;;;6238403;23;20266;-88
2023/03/27 06:36:23;;;;;;;5.73;2.60;;;;;;;;;;6253716;23;20162;-88
2023/03/27 06:39:30;;;;;;;3.43;2.30;;;;;;;;;;6236694;23;20163;-88
2023/03/27 06:42:37;;;;;;;11.77;4.87;;;;;;;;;;6257261;22;20198;-88
2023/03/27 06:46:02;;;;;;;6.83;3.67;;;;;;;;;;6256557;22;20194;-90
2023/03/27 06:49:27;;;;;;;5.20;2.43;;;;;;;;;;6256532;22;20167;-91
2023/03/27 06:52:33;;;;;;;3.03;0.73;;;;;;;;;;6256137;23;20269;-89
2023/03/27 06:55:53;;;;;;;0.50;0.50;;;;;;;;;;6258349;23;20167;-89
2023/03/27 06:58:59;;;;;;;0.63;0.53;;;;;;;;;;6237368;23;20221;-89
2023/03/27 07:02:06;;;;;;;10.27;4.20;;;;;;;;;;6239094;23;20242;-89
2023/03/27 07:05:38;;;;;;;1.63;0.70;;;;;;;;;;6248690;22;20209;-89
2023/03/27 07:08:45;;;;;;;3.57;1.33;;;;;;;;;;6256337;22;20186;-91
2023/03/27 07:11:50;;;;;;;23.60;12.67;;;;;;;;;;6258195;22;20198;-89
2023/03/27 07:18:46;;;;;;;11.50;1.07;;;;;;;;;;6255251;22;20162;-90
2023/03/27 07:25:48;;;;;;;0.80;0.60;;;;;;;;;;6262307;23;20174;-90
2023/03/27 07:29:04;;;;;;;1.57;0.70;;;;;;;;;;6258376;23;20182;-90
2023/03/27 07:32:09;;;;;;;5.63;1.17;;;;;;;;;;6255251;22;20198;-91
2023/03/27 07:35:19;;;;;;;1.30;0.90;;;;;;;;;;6254590;23;20319;-89
2023/03/27 07:38:45;;;;;;;4.37;1.17;;;;;;;;;;6257550;23;20221;-89
2023/03/27 07:42:20;;;;;;;1.37;0.70;;;;;;;;;;6256453;22;20232;-88
2023/03/27 07:45:40;;;;;;;2.20;1.50;;;;;;;;;;6256672;22;20479;-88
2023/03/27 07:48:47;;;;;;;2.40;0.93;;;;;;;;;;6256459;22;20154;-89
2023/03/27 07:52:00;;;;;;;3.50;0.70;;;;;;;;;;6260226;22;20210;-90
2023/03/27 07:55:07;;;;;;;1.90;0.60;;;;;;;;;;6260575;23;20219;-89
2023/03/27 07:58:20;;;;;;;2.50;0.70;;;;;;;;;;6258254;22;20265;-88
2023/03/27 08:01:26;;;;;;;1.57;0.60;;;;;;;;;;6236286;23;20174;-90
2023/03/27 08:04:33;;;;;;;0.93;0.60;;;;;;;;;;6253843;22;20166;-89
2023/03/27 08:07:48;;;;;;;2.87;0.70;;;;;;;;;;6237162;23;20249;-87
2023/03/27 08:11:08;;;;;;;3.40;0.63;;;;;;;;;;6242308;22;20190;-88
2023/03/27 08:14:20;;;;;;;1.53;0.70;;;;;;;;;;6237337;23;20622;-88
2023/03/27 08:17:26;;;;;;;1.80;0.90;;;;;;;;;;6238583;22;20203;-90
2023/03/27 08:20:34;;;;;;;2.37;0.73;;;;;;;;;;6239334;22;20618;-89
2023/03/27 08:23:42;;;;;;;3.83;1.20;;;;;;;;;;6255460;22;20239;-89
2023/03/27 08:27:17;;;;;;;0.70;0.53;;;;;;;;;;6255926;23;20166;-88
2023/03/27 08:30:26;;;;;;;3.47;0.90;;;;;;;;;;6236578;23;20608;-88
2023/03/27 08:33:36;;;;;;;1.40;0.70;;;;;;;;;;6256687;23;20162;-89
2023/03/27 08:36:42;;;;;;;1.37;0.57;;;;;;;;;;6238704;23;20167;-89
2023/03/27 08:39:47;;;;;;;2.03;0.70;;;;;;;;;;6238240;22;20501;-91
2023/03/27 08:42:55;;;;;;;0.80;0.60;;;;;;;;;;6256622;22;20166;-89
2023/03/27 08:46:04;;;;;;;1.87;0.60;;;;;;;;;;6240528;23;20194;-90
2023/03/27 08:49:17;;;;;;;2.60;0.70;;;;;;;;;;6255756;22;20166;-89
2023/03/27 08:52:43;;;;;;;0.82;0.60;;;;;;;;;;6254562;23;20304;-89
2023/03/27 08:55:56;;;;;;;2.15;0.85;;;;;;;;;;6255768;22;20213;-89
2023/03/27 08:59:12;;;;;;;1.10;0.70;;;;;;;;;;6258251;22;20166;-88
2023/03/27 09:02:37;;;;;;;3.53;0.70;;;;;;;;;;6256520;23;20170;-89
2023/03/27 09:05:48;;;;;;;1.00;0.70;;;;;;;;;;6238666;23;20285;-88
2023/03/27 09:08:58;;;;;;;2.27;1.20;;;;;;;;;;6257540;23;20297;-91
2023/03/27 09:12:09;;;;;;;1.00;0.80;;;;;;;;;;6258177;23;20189;-91
2023/03/27 09:15:24;;;;;;;0.63;0.60;;;;;;;;;;6256259;22;20202;-90
2023/03/27 09:18:33;;;;;;;1.10;0.80;;;;;;;;;;6256108;22;20203;-89
2023/03/27 09:21:51;;;;;;;1.10;0.80;;;;;;;;;;6255675;22;20167;-88
2023/03/27 09:25:19;;;;;;;3.13;1.10;;;;;;;;;;6256402;23;20227;-90
2023/03/27 09:29:05;;;;;;;1.57;1.00;;;;;;;;;;6196869;23;20196;-89
2023/03/27 10:31:55;;;;;;;2.17;1.20;;;;;;;;;;6228675;23;20199;-90
2023/03/27 10:35:26;;;;;;;2.10;1.00;;;;;;;;;;6213163;23;20186;-91
2023/03/27 10:39:01;;;;;;;5.20;1.53;;;;;;;;;;6232208;23;20174;-89
2023/03/27 10:42:21;;;;;;;4.10;1.43;;;;;;;;;;6211075;23;20183;-89
2023/03/27 10:45:41;;;;;;;7.87;1.90;;;;;;;;;;6212403;23;20171;-89
2023/03/27 10:48:51;;;;;;;5.20;1.60;;;;;;;;;;6210248;23;20175;-89
2023/03/27 10:52:07;;;;;;;6.38;1.80;;;;;;;;;;6223552;23;20195;-90
2023/03/27 10:55:38;;;;;;;2.88;1.10;;;;;;;;;;6225200;23;20278;-89
2023/03/27 10:58:48;;;;;;;2.17;1.45;;;;;;;;;;6210913;23;20170;-89
2023/03/27 11:02:19;;;;;;;3.53;1.60;;;;;;;;;;6209895;23;20286;-89
2023/03/27 11:05:32;;;;;;;7.18;1.90;;;;;;;;;;6209057;22;20183;-86
2023/03/27 11:08:47;;;;;;;4.33;1.80;;;;;;;;;;6208763;23;20195;-90
2023/03/27 11:11:54;;;;;;;6.33;1.83;;;;;;;;;;6207827;23;20191;-88
2023/03/27 11:15:01;;;;;;;3.13;1.60;;;;;;;;;;6206994;23;20250;-89
2023/03/27 11:18:13;;;;;;;5.13;1.47;;;;;;;;;;6207148;23;20176;-87
2023/03/27 11:21:33;;;;;;;3.37;1.47;;;;;;;;;;6226999;23;20219;-89
2023/03/27 11:24:43;;;;;;;2.07;1.60;;;;;;;;;;6211727;23;20172;-90
2023/03/27 11:27:54;;;;;;;2.97;1.60;;;;;;;;;;6209192;23;20175;-89
2023/03/27 11:31:06;;;;;;;2.27;1.60;;;;;;;;;;6226334;23;20191;-89
2023/03/27 11:34:17;;;;;;;4.20;1.37;;;;;;;;;;6208378;23;20171;-87
2023/03/27 11:37:32;;;;;;;2.95;1.40;;;;;;;;;;6227266;23;20498;-90
2023/03/27 11:40:43;;;;;;;4.80;1.52;;;;;;;;;;6208993;23;20327;-89
2023/03/27 11:43:48;;;;;;;2.92;1.35;;;;;;;;;;6208504;23;20167;-89
2023/03/27 11:47:24;;;;;;;4.15;1.25;;;;;;;;;;6203458;23;20622;-91
2023/03/27 11:50:34;;;;;;;2.10;1.10;;;;;;;;;;6208089;23;20183;-89
2023/03/27 11:53:44;;;;;;;4.00;1.33;;;;;;;;;;6209190;23;20187;-88
2023/03/27 11:56:53;;;;;;;1.77;1.02;;;;;;;;;;6224590;23;20175;-88
2023/03/27 12:00:28;;;;;;;3.22;1.38;;;;;;;;;;6227543;23;20656;-89
2023/03/27 12:03:47;;;;;;;2.55;1.25;;;;;;;;;;6227273;23;20182;-90
2023/03/27 12:07:02;;;;;;;2.38;1.10;;;;;;;;;;6206765;23;20222;-90
2023/03/27 12:10:30;;;;;;;2.93;1.40;;;;;;;;;;6207444;23;20175;-89
2023/03/27 12:13:59;;;;;;;4.87;1.80;;;;;;;;;;6225781;23;20239;-88
2023/03/27 12:17:15;;;;;;;3.13;1.40;;;;;;;;;;6210022;23;20163;-89
2023/03/27 12:20:48;;;;;;;2.83;1.17;;;;;;;;;;6210189;23;20167;-88
2023/03/27 12:24:09;;;;;;;1.80;1.10;;;;;;;;;;6223995;23;20175;-90
2023/03/27 12:27:27;;;;;;;2.95;1.30;;;;;;;;;;6225502;23;20176;-89
2023/03/27 12:30:47;;;;;;;1.52;0.93;;;;;;;;;;6223613;23;20191;-89
2023/03/27 12:33:57;;;;;;;2.40;1.17;;;;;;;;;;6210406;23;20190;-88
2023/03/27 12:37:04;;;;;;;2.33;1.00;;;;;;;;;;6208945;23;20207;-90
2023/03/27 12:40:15;;;;;;;1.90;0.98;;;;;;;;;;6210076;23;20175;-89
2023/03/27 12:43:28;;;;;;;3.70;1.05;;;;;;;;;;6209213;23;20509;-89
2023/03/27 12:47:04;;;;;;;4.55;1.38;;;;;;;;;;6209297;23;20179;-89
2023/03/27 12:50:18;;;;;;;2.38;0.90;;;;;;;;;;6229110;23;20183;-89
2023/03/27 12:53:42;;;;;;;2.95;0.77;;;;;;;;;;6226592;23;20194;-88
2023/03/27 12:56:50;;;;;;;1.15;0.90;;;;;;;;;;6209373;23;20175;-90
2023/03/27 12:59:58;;;;;;;2.53;1.02;;;;;;;;;;6228528;22;20242;-89
2023/03/27 13:03:14;;;;;;;3.10;1.05;;;;;;;;;;6228504;22;20263;-90
2023/03/27 13:06:23;;;;;;;2.67;0.85;;;;;;;;;;6230191;23;20525;-89
2023/03/27 13:09:36;;;;;;;4.72;1.00;;;;;;;;;;6211240;23;20179;-90
2023/03/27 13:13:04;;;;;;;2.55;0.75;;;;;;;;;;6227431;23;20191;-90
2023/03/27 13:16:23;;;;;;;2.55;1.00;;;;;;;;;;6215668;23;20235;-89
2023/03/27 13:19:37;;;;;;;7.43;0.98;;;;;;;;;;6213599;22;20615;-86
2023/03/27 13:23:02;;;;;;;4.03;1.20;;;;;;;;;;6212974;23;20194;-89
2023/03/27 13:26:18;;;;;;;2.22;0.95;;;;;;;;;;6230421;23;20216;-88
2023/03/27 13:29:25;;;;;;;1.10;0.80;;;;;;;;;;6212428;22;20194;-88
2023/03/27 13:32:42;;;;;;;1.92;0.80;;;;;;;;;;6230232;23;20250;-89
2023/03/27 13:36:18;;;;;;;3.47;0.82;;;;;;;;;;6229223;22;20602;-91
2023/03/27 13:39:24;;;;;;;2.88;1.00;;;;;;;;;;6228620;22;20175;-90
2023/03/27 13:42:38;;;;;;;3.88;1.00;;;;;;;;;;6210930;22;20222;-91
2023/03/27 13:45:48;;;;;;;5.40;0.82;;;;;;;;;;6211999;23;20179;-88
2023/03/27 13:49:23;;;;;;;5.80;1.00;;;;;;;;;;6228538;23;20250;-90
2023/03/27 13:52:54;;;;;;;2.05;0.80;;;;;;;;;;6229054;23;20207;-87
2023/03/27 13:56:32;;;;;;;0.85;0.65;;;;;;;;;;6227565;22;20166;-86
2023/03/27 14:00:21;;;;;;;2.22;0.70;;;;;;;;;;6230216;22;20182;-88
2023/03/27 14:03:57;;;;;;;4.63;1.10;;;;;;;;;;6229922;23;20214;-87
2023/03/27 14:07:17;;;;;;;1.27;0.60;;;;;;;;;;6213649;22;20154;-89
2023/03/27 14:10:48;;;;;;;2.53;0.82;;;;;;;;;;6213017;22;20174;-89
2023/03/27 14:14:07;;;;;;;3.47;0.82;;;;;;;;;;6212316;23;20230;-88
2023/03/27 14:17:28;;;;;;;2.17;0.82;;;;;;;;;;6229231;23;20240;-87
2023/03/27 14:21:00;;;;;;;2.22;0.80;;;;;;;;;;6211149;22;20167;-90
2023/03/27 14:24:10;;;;;;;2.20;0.90;;;;;;;;;;6211995;22;20172;-89
2023/03/27 14:27:25;;;;;;;4.63;0.90;;;;;;;;;;6211336;23;20167;-87
2023/03/27 14:30:32;;;;;;;2.15;0.90;;;;;;;;;;6213015;23;20174;-90
2023/03/27 14:34:05;;;;;;;3.33;1.20;;;;;;;;;;6211106;22;20195;-89
2023/03/27 14:37:35;;;;;;;2.35;0.80;;;;;;;;;;6213697;23;20262;-90
2023/03/27 14:41:19;;;;;;;4.15;1.20;;;;;;;;;;6231282;22;20306;-88
2023/03/27 14:44:32;;;;;;;2.85;0.90;;;;;;;;;;6210805;23;20630;-89
2023/03/27 14:47:43;;;;;;;3.45;1.13;;;;;;;;;;6212341;23;20163;-89
2023/03/27 14:50:50;;;;;;;2.10;0.90;;;;;;;;;;6211506;23;20493;-88
2023/03/27 14:54:03;;;;;;;2.80;1.00;;;;;;;;;;6211215;23;20199;-90
2023/03/27 14:57:24;;;;;;;4.68;0.85;;;;;;;;;;6228564;23;20163;-89
2023/03/27 15:00:36;;;;;;;2.33;0.88;;;;;;;;;;6209621;22;20172;-89
2023/03/27 15:04:12;;;;;;;4.28;1.23;;;;;;;;;;6211516;23;20175;-88
2023/03/27 15:07:21;;;;;;;4.43;1.20;;;;;;;;;;6207926;23;20275;-89
2023/03/27 15:10:51;;;;;;;1.67;0.70;;;;;;;;;;6229797;22;20171;-89
2023/03/27 15:14:17;;;;;;;4.65;0.80;;;;;;;;;;6228762;23;20199;-88
2023/03/27 15:17:26;;;;;;;3.25;1.02;;;;;;;;;;6210180;22;20170;-90
2023/03/27 15:20:35;;;;;;;2.05;1.13;;;;;;;;;;6211528;23;20175;-88
2023/03/27 15:23:44;;;;;;;3.67;1.10;;;;;;;;;;6229493;23;20302;-88
2023/03/27 15:26:50;;;;;;;3.72;1.05;;;;;;;;;;6228376;23;20167;-90
2023/03/27 15:29:58;;;;;;;2.63;0.93;;;;;;;;;;6210597;23;20261;-90
2023/03/27 15:33:06;;;;;;;4.15;0.80;;;;;;;;;;6210352;23;20186;-89
2023/03/27 15:36:25;;;;;;;3.33;1.00;;;;;;;;;;6211419;22;20167;-89
2023/03/27 15:39:35;;;;;;;6.65;1.45;;;;;;;;;;6214195;23;20193;-90
2023/03/27 15:42:48;;;;;;;3.88;1.10;;;;;;;;;;6212436;23;20183;-91
2023/03/27 15:46:01;;;;;;;5.65;1.10;;;;;;;;;;6211144;22;20155;-89
2023/03/27 15:49:24;;;;;;;1.83;0.80;;;;;;;;;;6211152;23;20171;-91
2023/03/27 15:52:30;;;;;;;6.50;1.00;;;;;;;;;;6212408;23;20177;-89
2023/03/27 15:55:38;;;;;;;5.50;0.88;;;;;;;;;;6211625;23;20248;-91
2023/03/27 15:58:48;;;;;;;4.47;0.90;;;;;;;;;;6210802;22;20163;-90
2023/03/27 16:02:27;;;;;;;3.67;1.27;;;;;;;;;;6209227;22;20171;-91
2023/03/27 16:05:38;;;;;;;2.38;1.00;;;;;;;;;;6210674;23;20155;-89
2023/03/27 16:08:46;;;;;;;2.47;0.88;;;;;;;;;;6231685;23;20163;-90
2023/03/27 16:11:53;;;;;;;1.98;0.85;;;;;;;;;;6212951;22;20163;-90
2023/03/27 16:15:01;;;;;;;4.80;1.20;;;;;;;;;;6211944;22;20265;-91
2023/03/27 16:18:17;;;;;;;5.18;1.00;;;;;;;;;;6209782;22;20171;-89
2023/03/27 16:21:32;;;;;;;2.80;1.17;;;;;;;;;;6209992;23;20171;-90
2023/03/27 16:24:40;;;;;;;4.50;1.00;;;;;;;;;;6227134;23;20219;-89
2023/03/27 16:27:47;;;;;;;8.23;1.30;;;;;;;;;;6225088;22;20166;-90
2023/03/27 16:30:53;;;;;;;4.40;1.47;;;;;;;;;;6227413;23;20186;-88
2023/03/27 16:33:58;;;;;;;5.03;1.17;;;;;;;;;;6210969;22;20222;-89
2023/03/27 16:37:03;;;;;;;4.37;1.00;;;;;;;;;;6210646;23;20162;-89
2023/03/27 16:40:11;;;;;;;2.63;1.10;;;;;;;;;;6210006;23;20229;-88
2023/03/27 16:43:17;;;;;;;4.80;1.70;;;;;;;;;;6225483;22;20235;-89
2023/03/27 16:46:23;;;;;;;4.63;1.60;;;;;;;;;;6227445;23;20166;-89
2023/03/27 16:49:28;;;;;;;5.03;1.50;;;;;;;;;;6211925;22;20239;-88
2023/03/27 16:52:34;;;;;;;6.10;1.50;;;;;;;;;;6211402;23;20427;-90
2023/03/27 16:55:43;;;;;;;11.13;2.03;;;;;;;;;;6211245;23;20627;-88
2023/03/27 16:58:49;;;;;;;7.03;2.00;;;;;;;;;;6210665;23;20151;-89
2023/03/27 17:02:00;;;;;;;5.80;1.83;;;;;;;;;;6211323;22;20167;-90
2023/03/27 17:05:09;;;;;;;4.53;1.40;;;;;;;;;;6209923;22;20214;-89
2023/03/27 17:08:15;;;;;;;7.53;1.70;;;;;;;;;;6227913;23;20168;-89
2023/03/27 17:11:22;;;;;;;4.73;1.63;;;;;;;;;;6211766;23;20151;-89
2023/03/27 17:14:56;;;;;;;7.07;1.30;;;;;;;;;;6212210;23;20175;-90
2023/03/27 17:18:02;;;;;;;4.67;1.10;;;;;;;;;;6216395;23;20168;-88
2023/03/27 17:21:16;;;;;;;5.93;1.20;;;;;;;;;;6232745;23;20219;-89
2023/03/27 17:24:23;;;;;;;7.43;1.27;;;;;;;;;;6214051;23;20680;-89
2023/03/27 17:27:31;;;;;;;4.57;1.20;;;;;;;;;;6213627;22;20189;-89
2023/03/27 17:30:36;;;;;;;1.80;0.97;;;;;;;;;;6213867;22;20190;-90
2023/03/27 17:33:45;;;;;;;3.30;1.03;;;;;;;;;;6232368;23;20179;-89
2023/03/27 17:36:51;;;;;;;4.83;1.30;;;;;;;;;;6216824;23;20176;-87
2023/03/27 17:39:57;;;;;;;4.07;1.20;;;;;;;;;;6213374;23;20171;-87
2023/03/27 17:43:05;;;;;;;1.60;1.00;;;;;;;;;;6213648;23;20182;-87
2023/03/27 17:46:12;;;;;;;4.87;1.10;;;;;;;;;;6213868;22;20183;-91
2023/03/27 17:49:17;;;;;;;5.60;1.63;;;;;;;;;;6230957;23;20166;-88
2023/03/27 17:52:25;;;;;;;3.53;1.40;;;;;;;;;;6215411;23;20742;-90
2023/03/27 17:55:33;;;;;;;4.80;1.20;;;;;;;;;;6212916;23;20194;-88
2023/03/27 17:58:40;;;;;;;4.57;1.17;;;;;;;;;;6231693;22;20614;-88
2023/03/27 18:01:52;;;;;;;5.57;1.33;;;;;;;;;;6213652;22;20163;-88
2023/03/27 18:04:59;;;;;;;4.63;1.50;;;;;;;;;;6212462;23;20631;-86
2023/03/27 18:08:05;;;;;;;5.17;1.60;;;;;;;;;;6214563;23;20278;-88
2023/03/27 18:11:15;;;;;;;3.73;1.23;;;;;;;;;;6230421;23;20168;-89
2023/03/27 18:14:26;;;;;;;7.30;2.10;;;;;;;;;;6230760;22;20182;-88
2023/03/27 18:17:33;;;;;;;6.40;2.00;;;;;;;;;;6211934;22;20150;-87
2023/03/27 18:20:42;;;;;;;3.77;1.90;;;;;;;;;;6209984;23;20188;-88
2023/03/27 18:23:48;;;;;;;5.13;1.63;;;;;;;;;;6210542;23;20175;-88
2023/03/27 18:26:54;;;;;;;5.63;1.83;;;;;;;;;;6207032;23;20670;-88
2023/03/27 18:30:01;;;;;;;5.40;1.90;;;;;;;;;;6208548;22;20171;-89
2023/03/27 18:33:07;;;;;;;3.73;1.80;;;;;;;;;;6210301;22;20168;-88
2023/03/27 18:36:12;;;;;;;4.60;1.47;;;;;;;;;;6209445;23;20214;-89
2023/03/27 18:39:17;;;;;;;6.97;2.03;;;;;;;;;;6208653;23;20192;-88
2023/03/27 18:42:22;;;;;;;7.43;1.80;;;;;;;;;;6207212;23;20167;-88
2023/03/27 18:45:31;;;;;;;6.23;2.50;;;;;;;;;;6207470;22;20174;-89
2023/03/27 18:48:37;;;;;;;5.80;2.20;;;;;;;;;;6216131;22;20171;-88
2023/03/27 18:51:43;;;;;;;4.07;1.73;;;;;;;;;;6215626;23;20167;-89
2023/03/27 18:54:51;;;;;;;3.03;1.60;;;;;;;;;;6215592;23;20215;-90
2023/03/27 18:57:56;;;;;;;4.13;1.37;;;;;;;;;;6213487;23;20167;-89
2023/03/27 19:01:16;;;;;;;3.53;1.30;;;;;;;;;;6212985;22;20180;-89
2023/03/27 19:04:23;;;;;;;4.60;1.20;;;;;;;;;;6214922;22;20174;-87
2023/03/27 19:07:29;;;;;;;4.67;1.50;;;;;;;;;;6215011;23;20206;-88
2023/03/27 19:10:35;;;;;;;8.43;2.53;;;;;;;;;;6215097;23;20167;-89
2023/03/27 19:14:05;;;;;;;9.03;2.40;;;;;;;;;;6212985;22;20218;-90
2023/03/27 19:17:31;;;;;;;5.27;1.77;;;;;;;;;;6232862;22;20167;-88
2023/03/27 19:20:46;;;;;;;7.50;2.43;;;;;;;;;;6213487;23;20250;-88
2023/03/27 19:24:20;;;;;;;4.70;1.77;;;;;;;;;;6213562;22;20222;-89
2023/03/27 19:27:26;;;;;;;5.97;1.70;;;;;;;;;;6214131;22;20167;-90
2023/03/27 19:30:32;;;;;;;4.40;1.93;;;;;;;;;;6229670;22;20186;-91
2023/03/27 19:33:40;;;;;;;5.33;1.90;;;;;;;;;;6218858;23;20171;-88
2023/03/27 19:36:46;;;;;;;4.77;2.10;;;;;;;;;;6218092;23;20218;-90
2023/03/27 19:39:55;;;;;;;4.80;2.00;;;;;;;;;;6218115;22;20228;-88
2023/03/27 19:43:12;;;;;;;5.50;2.07;;;;;;;;;;6218051;22;20166;-88
2023/03/27 19:46:19;;;;;;;8.07;1.63;;;;;;;;;;6217602;23;20555;-88
2023/03/27 19:49:28;;;;;;;4.23;1.60;;;;;;;;;;6217679;23;20163;-89
2023/03/27 19:52:54;;;;;;;3.87;1.73;;;;;;;;;;6216239;22;20168;-88
2023/03/27 19:56:00;;;;;;;9.53;2.30;;;;;;;;;;6215219;22;20199;-89
2023/03/27 19:59:06;;;;;;;5.90;1.60;;;;;;;;;;6214977;22;20215;-89
2023/03/27 20:02:12;;;;;;;5.90;1.77;;;;;;;;;;6213286;23;20151;-89
2023/03/27 20:05:22;;;;;;;8.20;1.90;;;;;;;;;;6216837;23;20170;-90
2023/03/27 20:08:29;;;;;;;9.87;1.57;;;;;;;;;;6233521;22;20179;-88
2023/03/27 20:11:35;;;;;;;7.60;1.80;;;;;;;;;;6218102;22;20187;-87
2023/03/27 20:14:45;;;;;;;6.63;1.97;;;;;;;;;;6216871;22;20199;-88
2023/03/27 20:17:51;;;;;;;5.67;2.10;;;;;;;;;;6216666;23;20191;-89
2023/03/27 20:24:54;;;;;;;5.50;2.30;;;;;;;;;;6234468;22;20158;-89
2023/03/27 20:28:08;;;;;;;8.13;2.70;;;;;;;;;;6217244;23;20146;-89
2023/03/27 20:31:14;;;;;;;5.90;2.13;;;;;;;;;;6217424;23;20183;-90